sensor_id;sensor_type;location;lat;lon;timestamp;temperature;humidity
47961;DHT22;33721;48.852;9.936;2023-04-01T00:00:22;8.70;99.90
47961;DHT22;33721;48.852;9.936;2023-04-01T00:02:47;8.60;99.90
47961;DHT22;33721;48.852;9.936;2023-04-01T00:05:13;8.70;99.90
47961;DHT22;33721;48.852;9.936;2023-04-01T00:07:40;8.60;99.90
47961;DHT22;33721;48.852;9.936;2023-04-01T00:10:09;8.50;99.90
47961;DHT22;33721;48.852;9.936;2023-04-01T00:12:35;8.50;99.90
47961;DHT22;33721;48.852;9.936;2023-04-01T00:15:02;8.50;99.90
47961;DHT22;33721;48.852;9.936;2023-04-01T00:17:28;8.50;99.90
47961;DHT22;33721;48.852;9.936;2023-04-01T00:19:57;8.50;99.90
47961;DHT22;33721;48.852;9.936;2023-04-01T00:22:23;8.50;99.90
47961;DHT22;33721;48.852;9.936;2023-04-01T00:24:49;8.50;99.90
47961;DHT22;33721;48.852;9.936;2023-04-01T00:27:15;8.50;99.90
47961;DHT22;33721;48.852;9.936;2023-04-01T00:29:42;8.50;99.90
47961;DHT22;33721;48.852;9.936;2023-04-01T00:32:09;8.50;99.90
47961;DHT22;33721;48.852;9.936;2023-04-01T00:34:34;8.50;99.90
47961;DHT22;33721;48.852;9.936;2023-04-01T00:37:00;8.50;99.90
47961;DHT22;33721;48.852;9.936;2023-04-01T00:39:29;8.50;99.90
47961;DHT22;33721;48.852;9.936;2023-04-01T00:41:54;8.50;99.90
47961;DHT22;33721;48.852;9.936;2023-04-01T00:44:33;8.50;99.90
47961;DHT22;33721;48.852;9.936;2023-04-01T00:47:02;8.50;99.90
47961;DHT22;33721;48.852;9.936;2023-04-01T00:49:34;8.50;99.90
47961;DHT22;33721;48.852;9.936;2023-04-01T00:52:03;8.40;99.90
47961;DHT22;33721;48.852;9.936;2023-04-01T00:54:30;8.40;99.90
47961;DHT22;33721;48.852;9.936;2023-04-01T00:56:59;8.50;99.90
47961;DHT22;33721;48.852;9.936;2023-04-01T00:59:35;8.50;99.90
47961;DHT22;33721;48.852;9.936;2023-04-01T01:02:04;8.60;99.90
47961;DHT22;33721;48.852;9.936;2023-04-01T01:04:33;8.50;99.90
47961;DHT22;33721;48.852;9.936;2023-04-01T01:07:25;8.50;99.90
47961;DHT22;33721;48.852;9.936;2023-04-01T01:12:51;8.60;99.90
47961;DHT22;33721;48.852;9.936;2023-04-01T01:17:50;8.50;99.90
47961;DHT22;33721;48.852;9.936;2023-04-01T01:21:20;8.50;99.90
47961;DHT22;33721;48.852;9.936;2023-04-01T01:34:43;8.50;99.90
47961;DHT22;33721;48.852;9.936;2023-04-01T01:37:17;8.50;99.90
47961;DHT22;33721;48.852;9.936;2023-04-01T01:39:54;8.40;99.90
47961;DHT22;33721;48.852;9.936;2023-04-01T01:42:20;8.40;99.90
47961;DHT22;33721;48.852;9.936;2023-04-01T01:44:49;8.40;99.90
47961;DHT22;33721;48.852;9.936;2023-04-01T01:47:17;8.30;99.90
47961;DHT22;33721;48.852;9.936;2023-04-01T01:49:44;8.30;99.90
47961;DHT22;33721;48.852;9.936;2023-04-01T01:52:12;8.20;99.90
47961;DHT22;33721;48.852;9.936;2023-04-01T01:54:48;8.20;99.90
47961;DHT22;33721;48.852;9.936;2023-04-01T01:57:15;8.20;99.90
47961;DHT22;33721;48.852;9.936;2023-04-01T01:59:42;8.10;99.90
47961;DHT22;33721;48.852;9.936;2023-04-01T02:02:10;8.10;99.90
47961;DHT22;33721;48.852;9.936;2023-04-01T02:04:39;8.10;99.90
47961;DHT22;33721;48.852;9.936;2023-04-01T02:07:10;8.10;99.90
47961;DHT22;33721;48.852;9.936;2023-04-01T02:09:37;8.10;99.90
47961;DHT22;33721;48.852;9.936;2023-04-01T02:12:06;8.10;99.90
47961;DHT22;33721;48.852;9.936;2023-04-01T02:14:41;8.10;99.90
47961;DHT22;33721;48.852;9.936;2023-04-01T02:17:15;8.10;99.90
47961;DHT22;33721;48.852;9.936;2023-04-01T02:22:23;8.00;99.90
47961;DHT22;33721;48.852;9.936;2023-04-01T02:24:54;7.90;99.90
47961;DHT22;33721;48.852;9.936;2023-04-01T02:27:22;7.80;99.90
47961;DHT22;33721;48.852;9.936;2023-04-01T02:29:49;7.80;99.90
47961;DHT22;33721;48.852;9.936;2023-04-01T02:32:15;7.80;99.90
47961;DHT22;33721;48.852;9.936;2023-04-01T02:34:42;7.80;99.90
47961;DHT22;33721;48.852;9.936;2023-04-01T02:37:08;7.70;99.90
47961;DHT22;33721;48.852;9.936;2023-04-01T02:39:34;7.70;99.90
47961;DHT22;33721;48.852;9.936;2023-04-01T02:42:00;7.70;99.90
47961;DHT22;33721;48.852;9.936;2023-04-01T02:44:26;7.70;99.90
47961;DHT22;33721;48.852;9.936;2023-04-01T02:46:51;7.70;99.90
47961;DHT22;33721;48.852;9.936;2023-04-01T02:49:18;7.60;99.90
47961;DHT22;33721;48.852;9.936;2023-04-01T02:51:43;7.60;99.90
47961;DHT22;33721;48.852;9.936;2023-04-01T02:54:09;7.60;99.90
47961;DHT22;33721;48.852;9.936;2023-04-01T02:56:35;7.60;99.90
47961;DHT22;33721;48.852;9.936;2023-04-01T02:59:00;7.60;99.90
47961;DHT22;33721;48.852;9.936;2023-04-01T03:01:26;7.60;99.90
47961;DHT22;33721;48.852;9.936;2023-04-01T03:03:52;7.60;99.90
47961;DHT22;33721;48.852;9.936;2023-04-01T03:06:18;7.70;99.90
47961;DHT22;33721;48.852;9.936;2023-04-01T03:08:44;7.70;99.90
47961;DHT22;33721;48.852;9.936;2023-04-01T03:11:10;7.60;99.90
47961;DHT22;33721;48.852;9.936;2023-04-01T03:13:36;7.60;99.90
47961;DHT22;33721;48.852;9.936;2023-04-01T03:16:02;7.60;99.90
47961;DHT22;33721;48.852;9.936;2023-04-01T03:18:27;7.70;99.90
47961;DHT22;33721;48.852;9.936;2023-04-01T03:20:53;7.70;99.90
47961;DHT22;33721;48.852;9.936;2023-04-01T03:23:19;7.60;99.90
47961;DHT22;33721;48.852;9.936;2023-04-01T03:25:46;7.70;99.90
47961;DHT22;33721;48.852;9.936;2023-04-01T03:28:12;7.70;99.90
47961;DHT22;33721;48.852;9.936;2023-04-01T03:30:39;7.70;99.90
47961;DHT22;33721;48.852;9.936;2023-04-01T03:33:05;7.60;99.90
47961;DHT22;33721;48.852;9.936;2023-04-01T03:35:31;7.70;99.90
47961;DHT22;33721;48.852;9.936;2023-04-01T03:37:57;7.60;99.90
47961;DHT22;33721;48.852;9.936;2023-04-01T03:40:23;7.70;99.90
47961;DHT22;33721;48.852;9.936;2023-04-01T03:42:49;7.60;99.90
47961;DHT22;33721;48.852;9.936;2023-04-01T03:45:15;7.50;99.90
47961;DHT22;33721;48.852;9.936;2023-04-01T03:47:41;7.50;99.90
47961;DHT22;33721;48.852;9.936;2023-04-01T03:50:07;7.50;99.90
47961;DHT22;33721;48.852;9.936;2023-04-01T03:52:33;7.60;99.90
47961;DHT22;33721;48.852;9.936;2023-04-01T03:55:00;7.60;99.90
47961;DHT22;33721;48.852;9.936;2023-04-01T03:57:26;7.50;99.90
47961;DHT22;33721;48.852;9.936;2023-04-01T03:59:52;7.50;99.90
47961;DHT22;33721;48.852;9.936;2023-04-01T04:02:17;7.60;99.90
47961;DHT22;33721;48.852;9.936;2023-04-01T04:04:43;7.60;99.90
47961;DHT22;33721;48.852;9.936;2023-04-01T04:07:09;7.60;99.90
47961;DHT22;33721;48.852;9.936;2023-04-01T04:09:34;7.60;99.90
47961;DHT22;33721;48.852;9.936;2023-04-01T04:12:00;7.50;99.90
47961;DHT22;33721;48.852;9.936;2023-04-01T04:14:26;7.40;99.90
47961;DHT22;33721;48.852;9.936;2023-04-01T04:16:52;7.40;99.90
47961;DHT22;33721;48.852;9.936;2023-04-01T04:19:18;7.50;99.90
47961;DHT22;33721;48.852;9.936;2023-04-01T04:21:43;7.50;99.90
47961;DHT22;33721;48.852;9.936;2023-04-01T04:24:09;7.50;99.90
47961;DHT22;33721;48.852;9.936;2023-04-01T04:26:36;7.40;99.90
47961;DHT22;33721;48.852;9.936;2023-04-01T04:29:02;7.40;99.90
47961;DHT22;33721;48.852;9.936;2023-04-01T04:31:28;7.40;99.90
47961;DHT22;33721;48.852;9.936;2023-04-01T04:33:54;7.30;99.90
47961;DHT22;33721;48.852;9.936;2023-04-01T04:36:21;7.30;99.90
47961;DHT22;33721;48.852;9.936;2023-04-01T04:38:47;7.30;99.90
47961;DHT22;33721;48.852;9.936;2023-04-01T04:41:14;7.30;99.90
47961;DHT22;33721;48.852;9.936;2023-04-01T04:43:41;7.20;99.90
47961;DHT22;33721;48.852;9.936;2023-04-01T04:46:10;7.30;99.90
47961;DHT22;33721;48.852;9.936;2023-04-01T04:48:36;7.30;99.90
47961;DHT22;33721;48.852;9.936;2023-04-01T04:51:02;7.30;99.90
47961;DHT22;33721;48.852;9.936;2023-04-01T04:53:28;7.30;99.90
47961;DHT22;33721;48.852;9.936;2023-04-01T04:55:54;7.40;99.90
47961;DHT22;33721;48.852;9.936;2023-04-01T04:58:20;7.40;99.90
47961;DHT22;33721;48.852;9.936;2023-04-01T05:00:46;7.40;99.90
47961;DHT22;33721;48.852;9.936;2023-04-01T05:03:13;7.40;99.90
47961;DHT22;33721;48.852;9.936;2023-04-01T05:05:47;7.40;99.90
47961;DHT22;33721;48.852;9.936;2023-04-01T05:08:13;7.40;99.90
47961;DHT22;33721;48.852;9.936;2023-04-01T05:10:39;7.30;99.90
47961;DHT22;33721;48.852;9.936;2023-04-01T05:13:04;7.30;99.90
47961;DHT22;33721;48.852;9.936;2023-04-01T05:15:30;7.40;99.90
47961;DHT22;33721;48.852;9.936;2023-04-01T05:17:56;7.40;99.90
47961;DHT22;33721;48.852;9.936;2023-04-01T05:20:22;7.40;99.90
47961;DHT22;33721;48.852;9.936;2023-04-01T05:22:47;7.40;99.90
47961;DHT22;33721;48.852;9.936;2023-04-01T05:25:13;7.40;99.90
47961;DHT22;33721;48.852;9.936;2023-04-01T05:27:39;7.50;99.90
47961;DHT22;33721;48.852;9.936;2023-04-01T05:30:05;7.50;99.90
47961;DHT22;33721;48.852;9.936;2023-04-01T05:32:31;7.50;99.90
47961;DHT22;33721;48.852;9.936;2023-04-01T05:34:57;7.40;99.90
47961;DHT22;33721;48.852;9.936;2023-04-01T05:37:23;7.50;99.90
47961;DHT22;33721;48.852;9.936;2023-04-01T05:39:48;7.50;99.90
47961;DHT22;33721;48.852;9.936;2023-04-01T05:42:14;7.60;99.90
47961;DHT22;33721;48.852;9.936;2023-04-01T05:44:41;7.60;99.90
47961;DHT22;33721;48.852;9.936;2023-04-01T05:47:06;7.60;99.90
47961;DHT22;33721;48.852;9.936;2023-04-01T05:49:33;7.70;99.90
47961;DHT22;33721;48.852;9.936;2023-04-01T05:51:59;7.70;99.90
47961;DHT22;33721;48.852;9.936;2023-04-01T05:54:25;7.70;99.90
47961;DHT22;33721;48.852;9.936;2023-04-01T05:56:50;7.80;99.90
47961;DHT22;33721;48.852;9.936;2023-04-01T05:59:16;7.80;99.90
47961;DHT22;33721;48.852;9.936;2023-04-01T06:01:42;7.80;99.90
47961;DHT22;33721;48.852;9.936;2023-04-01T06:04:14;7.90;99.90
47961;DHT22;33721;48.852;9.936;2023-04-01T06:06:40;7.90;99.90
47961;DHT22;33721;48.852;9.936;2023-04-01T06:09:26;8.00;99.90
47961;DHT22;33721;48.852;9.936;2023-04-01T06:17:41;8.00;99.90
47961;DHT22;33721;48.852;9.936;2023-04-01T06:20:24;8.10;99.90
47961;DHT22;33721;48.852;9.936;2023-04-01T06:23:09;8.10;99.90
47961;DHT22;33721;48.852;9.936;2023-04-01T11:29:08;8.10;99.90
47961;DHT22;33721;48.852;9.936;2023-04-01T11:37:25;8.20;99.90
47961;DHT22;33721;48.852;9.936;2023-04-01T11:54:09;8.20;99.90
47961;DHT22;33721;48.852;9.936;2023-04-01T12:07:53;8.20;99.90
47961;DHT22;33721;48.852;9.936;2023-04-01T12:10:53;8.20;99.90
47961;DHT22;33721;48.852;9.936;2023-04-01T12:13:53;8.30;99.90
47961;DHT22;33721;48.852;9.936;2023-04-01T12:16:41;8.40;99.90
47961;DHT22;33721;48.852;9.936;2023-04-01T12:27:11;8.40;99.90
47961;DHT22;33721;48.852;9.936;2023-04-01T12:30:23;8.50;99.90
47961;DHT22;33721;48.852;9.936;2023-04-01T12:35:27;8.50;99.90
47961;DHT22;33721;48.852;9.936;2023-04-01T12:44:06;8.60;99.90
47961;DHT22;33721;48.852;9.936;2023-04-01T12:49:42;8.60;99.90
47961;DHT22;33721;48.852;9.936;2023-04-01T13:03:16;8.60;99.90
47961;DHT22;33721;48.852;9.936;2023-04-01T13:11:49;8.70;99.90
47961;DHT22;33721;48.852;9.936;2023-04-01T13:25:13;8.70;99.90
47961;DHT22;33721;48.852;9.936;2023-04-01T13:27:56;8.70;99.90
47961;DHT22;33721;48.852;9.936;2023-04-01T13:30:43;8.70;99.90
47961;DHT22;33721;48.852;9.936;2023-04-01T13:33:27;8.70;99.90
47961;DHT22;33721;48.852;9.936;2023-04-01T13:36:34;8.70;99.90
47961;DHT22;33721;48.852;9.936;2023-04-01T13:45:01;8.60;99.90
47961;DHT22;33721;48.852;9.936;2023-04-01T13:47:53;8.60;99.90
47961;DHT22;33721;48.852;9.936;2023-04-01T13:56:28;8.60;99.90
47961;DHT22;33721;48.852;9.936;2023-04-01T14:01:46;8.70;99.90
47961;DHT22;33721;48.852;9.936;2023-04-01T14:12:57;8.70;99.90
47961;DHT22;33721;48.852;9.936;2023-04-01T14:15:41;8.60;99.90
47961;DHT22;33721;48.852;9.936;2023-04-01T14:28:03;8.50;99.90
47961;DHT22;33721;48.852;9.936;2023-04-01T14:30:42;8.40;99.90
47961;DHT22;33721;48.852;9.936;2023-04-01T14:45:02;8.20;99.90
47961;DHT22;33721;48.852;9.936;2023-04-01T14:47:59;8.20;99.90
47961;DHT22;33721;48.852;9.936;2023-04-01T14:50:41;8.20;99.90
47961;DHT22;33721;48.852;9.936;2023-04-01T14:53:16;8.30;99.90
47961;DHT22;33721;48.852;9.936;2023-04-01T14:55:52;8.30;99.90
47961;DHT22;33721;48.852;9.936;2023-04-01T14:58:23;8.40;99.90
47961;DHT22;33721;48.852;9.936;2023-04-01T15:03:30;8.40;99.90
47961;DHT22;33721;48.852;9.936;2023-04-01T15:09:32;8.40;99.90
47961;DHT22;33721;48.852;9.936;2023-04-01T15:12:23;8.40;99.90
47961;DHT22;33721;48.852;9.936;2023-04-01T15:17:48;8.40;99.90
47961;DHT22;33721;48.852;9.936;2023-04-01T15:23:23;8.40;99.90
47961;DHT22;33721;48.852;9.936;2023-04-01T15:31:19;8.30;99.90
47961;DHT22;33721;48.852;9.936;2023-04-01T15:33:53;8.30;99.90
47961;DHT22;33721;48.852;9.936;2023-04-01T15:44:01;8.30;99.90
47961;DHT22;33721;48.852;9.936;2023-04-01T16:03:02;8.30;99.90
47961;DHT22;33721;48.852;9.936;2023-04-01T16:19:51;8.10;99.90
47961;DHT22;33721;48.852;9.936;2023-04-01T16:22:33;8.10;99.90
47961;DHT22;33721;48.852;9.936;2023-04-01T16:41:58;8.20;
47961;DHT22;33721;48.852;9.936;2023-04-01T16:47:34;8.20;99.90
47961;DHT22;33721;48.852;9.936;2023-04-01T16:58:20;8.10;99.90
47961;DHT22;33721;48.852;9.936;2023-04-01T17:00:55;8.10;99.90
47961;DHT22;33721;48.852;9.936;2023-04-01T17:03:30;8.10;99.90
47961;DHT22;33721;48.852;9.936;2023-04-01T17:06:23;8.10;99.90
47961;DHT22;33721;48.852;9.936;2023-04-01T17:14:54;8.00;99.90
47961;DHT22;33721;48.852;9.936;2023-04-01T17:20:48;8.00;99.90
47961;DHT22;33721;48.852;9.936;2023-04-01T17:23:00;8.00;99.90
47961;DHT22;33721;48.852;9.936;2023-04-01T17:33:51;8.00;99.90
47961;DHT22;33721;48.852;9.936;2023-04-01T17:42:08;8.00;99.90
47961;DHT22;33721;48.852;9.936;2023-04-01T17:53:39;8.00;99.90
47961;DHT22;33721;48.852;9.936;2023-04-01T18:20:31;7.90;99.90
47961;DHT22;33721;48.852;9.936;2023-04-01T18:23:24;7.90;99.90
47961;DHT22;33721;48.852;9.936;2023-04-01T18:26:04;7.90;99.90
47961;DHT22;33721;48.852;9.936;2023-04-01T18:41:54;7.90;99.90
47961;DHT22;33721;48.852;9.936;2023-04-01T18:44:46;7.90;99.90
47961;DHT22;33721;48.852;9.936;2023-04-01T18:49:55;8.00;99.90
47961;DHT22;33721;48.852;9.936;2023-04-01T18:53:00;8.00;99.90
47961;DHT22;33721;48.852;9.936;2023-04-01T18:55:46;8.00;99.90
47961;DHT22;33721;48.852;9.936;2023-04-01T18:58:26;8.00;99.90
47961;DHT22;33721;48.852;9.936;2023-04-01T19:01:16;7.90;99.90
47961;DHT22;33721;48.852;9.936;2023-04-01T19:06:49;7.90;99.90
47961;DHT22;33721;48.852;9.936;2023-04-01T19:09:24;7.90;99.90
47961;DHT22;33721;48.852;9.936;2023-04-01T19:12:31;7.80;99.90
47961;DHT22;33721;48.852;9.936;2023-04-01T19:32:30;7.60;99.90
47961;DHT22;33721;48.852;9.936;2023-04-01T19:37:43;7.50;99.90
47961;DHT22;33721;48.852;9.936;2023-04-01T19:43:07;7.50;99.90
47961;DHT22;33721;48.852;9.936;2023-04-01T19:45:47;7.40;99.90
47961;DHT22;33721;48.852;9.936;2023-04-01T19:59:50;7.20;99.90
47961;DHT22;33721;48.852;9.936;2023-04-01T20:02:33;7.20;99.90
47961;DHT22;33721;48.852;9.936;2023-04-01T20:07:52;7.10;99.90
47961;DHT22;33721;48.852;9.936;2023-04-01T20:13:19;7.10;99.90
47961;DHT22;33721;48.852;9.936;2023-04-01T20:16:03;7.10;99.90
47961;DHT22;33721;48.852;9.936;2023-04-01T20:18:50;7.00;99.90
47961;DHT22;33721;48.852;9.936;2023-04-01T20:21:36;7.00;99.90
47961;DHT22;33721;48.852;9.936;2023-04-01T20:24:26;7.10;99.90
47961;DHT22;33721;48.852;9.936;2023-04-01T20:27:10;7.00;99.90
47961;DHT22;33721;48.852;9.936;2023-04-01T20:29:52;7.10;99.90
47961;DHT22;33721;48.852;9.936;2023-04-01T20:40:58;7.00;99.90
47961;DHT22;33721;48.852;9.936;2023-04-01T20:46:51;7.00;99.90
47961;DHT22;33721;48.852;9.936;2023-04-01T20:49:30;7.00;99.90
47961;DHT22;33721;48.852;9.936;2023-04-01T21:02:48;7.20;99.90
47961;DHT22;33721;48.852;9.936;2023-04-01T21:22:14;7.40;99.90
47961;DHT22;33721;48.852;9.936;2023-04-01T21:28:43;7.40;99.90
47961;DHT22;33721;48.852;9.936;2023-04-01T22:02:34;7.20;99.90
47961;DHT22;33721;48.852;9.936;2023-04-01T22:07:44;7.10;99.90
47961;DHT22;33721;48.852;9.936;2023-04-01T22:10:25;7.10;99.90
47961;DHT22;33721;48.852;9.936;2023-04-01T22:12:59;7.10;99.90
47961;DHT22;33721;48.852;9.936;2023-04-01T22:20:57;7.10;99.90
47961;DHT22;33721;48.852;9.936;2023-04-01T22:26:27;7.00;99.90
47961;DHT22;33721;48.852;9.936;2023-04-01T22:29:14;7.00;99.90
47961;DHT22;33721;48.852;9.936;2023-04-01T22:31:44;7.00;99.90
47961;DHT22;33721;48.852;9.936;2023-04-01T22:34:46;7.00;99.90
47961;DHT22;33721;48.852;9.936;2023-04-01T22:37:31;7.00;99.90
47961;DHT22;33721;48.852;9.936;2023-04-01T22:43:00;7.00;99.90
47961;DHT22;33721;48.852;9.936;2023-04-01T22:48:24;7.00;99.90
47961;DHT22;33721;48.852;9.936;2023-04-01T22:50:59;7.00;99.90
47961;DHT22;33721;48.852;9.936;2023-04-01T22:56:49;7.00;99.90
47961;DHT22;33721;48.852;9.936;2023-04-01T22:59:35;6.90;99.90
47961;DHT22;33721;48.852;9.936;2023-04-01T23:02:18;7.00;99.90
47961;DHT22;33721;48.852;9.936;2023-04-01T23:04:52;7.00;99.90
47961;DHT22;33721;48.852;9.936;2023-04-01T23:10:43;7.00;99.90
47961;DHT22;33721;48.852;9.936;2023-04-01T23:13:22;7.10;99.90
47961;DHT22;33721;48.852;9.936;2023-04-01T23:15:51;7.10;99.90
47961;DHT22;33721;48.852;9.936;2023-04-01T23:23:20;7.20;99.90
47961;DHT22;33721;48.852;9.936;2023-04-01T23:26:04;7.20;99.90
47961;DHT22;33721;48.852;9.936;2023-04-01T23:28:39;7.20;99.90
47961;DHT22;33721;48.852;9.936;2023-04-01T23:31:26;7.20;99.90
47961;DHT22;33721;48.852;9.936;2023-04-01T23:34:17;7.20;99.90
47961;DHT22;33721;48.852;9.936;2023-04-01T23:36:53;7.20;99.90
47961;DHT22;33721;48.852;9.936;2023-04-01T23:39:37;7.20;99.90
47961;DHT22;33721;48.852;9.936;2023-04-01T23:42:06;7.20;99.90
47961;DHT22;33721;48.852;9.936;2023-04-01T23:44:34;7.20;99.90
47961;DHT22;33721;48.852;9.936;2023-04-01T23:47:01;7.20;99.90
47961;DHT22;33721;48.852;9.936;2023-04-01T23:49:33;7.20;99.90
47961;DHT22;33721;48.852;9.936;2023-04-01T23:52:25;7.20;99.90
47961;DHT22;33721;48.852;9.936;2023-04-01T23:54:54;7.20;99.90
47961;DHT22;33721;48.852;9.936;2023-04-01T23:57:33;7.20;99.90
